Time;durP1;ratioP1;P1;durP2;ratioP2;P2;SDS_P1;SDS_P2;PMS_P1;PMS_P2;Temp;Humidity;BMP_temperature;BMP_pressure;BME280_temperature;BME280_humidity;BME280_pressure;Samples;Min_cycle;Max_cycle;Signal;HPM_P1;HPM_P2
2023/09/26 00:01:38;;;;;;;11.90;5.15;;;;;;;19.17;100.00;64990.72;5051638;28;20209;-56
2023/09/26 00:04:03;;;;;;;10.65;5.03;;;;;;;19.16;100.00;64992.19;5050337;28;20209;-56
2023/09/26 00:06:30;;;;;;;11.73;5.80;;;;;;;19.09;100.00;64983.91;5051615;28;20201;-57
2023/09/26 00:08:56;;;;;;;12.30;5.35;;;;;;;18.98;100.00;64969.22;5051808;28;20728;-56
2023/09/26 00:11:22;;;;;;;10.35;5.38;;;;;;;18.98;100.00;64974.31;5051092;28;20223;-55
2023/09/26 00:13:49;;;;;;;9.02;4.97;;;;;;;19.04;100.00;64978.38;5050568;28;20205;-56
2023/09/26 00:16:15;;;;;;;11.45;5.18;;;;;;;19.04;100.00;64975.84;5050143;28;20255;-59
2023/09/26 00:18:42;;;;;;;10.60;5.55;;;;;;;19.02;100.00;64976.19;5033518;28;20205;-55
2023/09/26 00:21:10;;;;;;;8.88;5.35;;;;;;;19.00;100.00;64973.97;5049858;28;20217;-56
2023/09/26 00:23:36;;;;;;;8.95;5.22;;;;;;;18.99;100.00;64975.41;5033371;28;20243;-55
2023/09/26 00:26:03;;;;;;;6.90;5.32;;;;;;;18.99;100.00;64972.84;5051192;28;20229;-59
2023/09/26 00:28:29;;;;;;;11.68;5.65;;;;;;;19.04;100.00;64978.38;5033260;28;20209;-54
2023/09/26 00:31:03;;;;;;;11.13;5.10;;;;;;;19.00;100.00;64973.97;5050898;28;20284;-55
2023/09/26 00:33:29;;;;;;;11.15;5.30;;;;;;;18.98;100.00;64972.31;5051251;28;20301;-55
2023/09/26 00:35:54;;;;;;;7.43;5.47;;;;;;;19.00;100.00;64974.53;5051401;28;20221;-54
2023/09/26 00:38:19;;;;;;;11.02;5.25;;;;;;;18.97;100.00;64971.22;5051034;28;20814;-55
2023/09/26 00:40:45;;;;;;;12.00;5.75;;;;;;;19.01;100.00;64973.06;5050937;28;20577;-54
2023/09/26 00:43:21;;;;;;;9.20;5.07;;;;;;;19.04;100.00;64980.94;5050861;28;20209;-55
2023/09/26 00:45:51;;;;;;;13.18;5.40;;;;;;;19.07;100.00;64981.69;5049972;28;20207;-54
2023/09/26 00:48:16;;;;;;;10.13;5.50;;;;;;;19.05;100.00;64977.47;5051141;28;20292;-54
2023/09/26 00:50:43;;;;;;;8.88;5.28;;;;;;;19.06;100.00;64983.72;5050795;28;20781;-55
2023/09/26 00:53:08;;;;;;;11.48;5.55;;;;;;;19.08;100.00;64982.81;5051028;28;20286;-54
2023/09/26 00:55:35;;;;;;;13.35;5.22;;;;;;;18.89;100.00;64961.81;5050720;28;20668;-57
2023/09/26 00:58:02;;;;;;;10.77;5.25;;;;;;;18.85;100.00;64957.41;5050726;28;20267;-54
2023/09/26 01:00:28;;;;;;;8.90;4.82;;;;;;;18.84;100.00;64956.88;5050683;28;20247;-54
2023/09/26 01:02:54;;;;;;;11.07;5.32;;;;;;;18.76;100.00;64947.50;5050679;28;20229;-55
2023/09/26 01:05:21;;;;;;;8.85;5.47;;;;;;;18.74;100.00;64945.28;5050706;28;20213;-55
2023/09/26 01:07:46;;;;;;;14.18;5.28;;;;;;;18.73;100.00;64944.16;5050375;28;20250;-54
2023/09/26 01:10:12;;;;;;;9.80;5.22;;;;;;;18.68;100.00;64941.22;5033029;28;20236;-54
2023/09/26 01:12:41;;;;;;;10.57;5.47;;;;;;;18.65;100.00;64935.91;5050572;28;20209;-56
2023/09/26 01:15:08;;;;;;;11.40;4.88;;;;;;;18.62;100.00;64934.59;5050402;28;20205;-55
2023/09/26 01:17:34;;;;;;;14.52;5.65;;;;;;;18.66;100.00;64937.00;5050359;28;20699;-55
2023/09/26 01:20:00;;;;;;;10.93;5.28;;;;;;;18.78;100.00;64949.69;5032769;28;20213;-55
2023/09/26 01:22:31;;;;;;;10.63;5.10;;;;;;;18.71;100.00;64941.97;5050478;28;20209;-56
2023/09/26 01:24:57;;;;;;;9.65;5.75;;;;;;;18.65;100.00;64937.91;5050508;28;20206;-55
2023/09/26 01:27:23;;;;;;;14.60;5.38;;;;;;;18.79;100.00;64948.78;5050259;28;20205;-55
2023/09/26 01:29:48;;;;;;;12.73;5.18;;;;;;;18.79;100.00;64951.34;5050135;28;20209;-55
2023/09/26 01:32:14;;;;;;;12.63;5.55;;;;;;;18.68;100.00;64936.13;5050231;28;20198;-55
2023/09/26 01:34:39;;;;;;;8.02;5.47;;;;;;;18.57;100.00;64929.06;5050790;28;20216;-54
2023/09/26 01:37:07;;;;;;;14.45;4.88;;;;;;;18.43;100.00;64911.63;5050114;28;20212;-54
2023/09/26 01:39:32;;;;;;;14.45;4.82;;;;;;;18.59;100.00;64928.72;5050186;28;20303;-54
2023/09/26 01:41:58;;;;;;;10.38;4.22;;;;;;;18.42;100.00;64911.06;5050338;28;20610;-54
2023/09/26 01:44:23;;;;;;;11.93;5.20;;;;;;;18.47;100.00;64918.59;5049999;28;20210;-55
2023/09/26 01:46:49;;;;;;;10.70;5.15;;;;;;;18.46;100.00;64911.84;5050196;28;20209;-53
2023/09/26 01:49:14;;;;;;;17.83;5.57;;;;;;;18.45;100.00;64913.84;5050007;28;20710;-54
2023/09/26 01:51:40;;;;;;;6.47;4.70;;;;;;;18.32;100.00;64896.94;5049871;28;20229;-55
2023/09/26 01:54:05;;;;;;;11.05;5.22;;;;;;;18.38;100.00;64909.19;5050074;28;20201;-54
2023/09/26 01:56:32;;;;;;;9.05;4.38;;;;;;;18.37;100.00;64905.56;5049985;28;20210;-56
2023/09/26 01:58:57;;;;;;;8.98;4.65;;;;;;;18.29;100.00;64898.72;5053924;28;20201;-58
2023/09/26 02:01:23;;;;;;;10.85;5.45;;;;;;;18.24;100.00;64891.19;5053384;28;20649;-54
2023/09/26 02:03:48;;;;;;;8.95;5.20;;;;;;;18.28;100.00;64895.09;5053910;28;20205;-56
2023/09/26 02:06:14;;;;;;;12.93;5.40;;;;;;;18.30;100.00;64897.81;5053490;28;20197;-56
2023/09/26 02:08:39;;;;;;;11.18;4.85;;;;;;;18.56;100.00;64925.44;5018807;28;20205;-57
2023/09/26 02:11:04;;;;;;;13.98;5.65;;;;;;;18.61;100.00;64930.94;5053342;28;20201;-55
2023/09/26 02:13:30;;;;;;;7.32;4.70;;;;;;;18.57;100.00;64926.53;5052029;28;20209;-56
2023/09/26 02:15:55;;;;;;;7.97;4.78;;;;;;;18.46;100.00;64914.41;5035410;28;20212;-55
2023/09/26 02:18:21;;;;;;;10.50;5.10;;;;;;;18.28;100.00;64895.09;5035389;28;20596;-55
2023/09/26 02:20:46;;;;;;;7.38;5.10;;;;;;;18.26;100.00;64893.41;5053323;28;20589;-60
2023/09/26 02:23:12;;;;;;;13.55;5.50;;;;;;;18.38;100.00;64909.19;5053161;28;20221;-55
2023/09/26 02:25:39;;;;;;;12.90;5.18;;;;;;;18.39;100.00;64907.75;5053089;28;20209;-55
2023/09/26 02:28:04;;;;;;;8.23;5.10;;;;;;;18.18;100.00;64882.03;5053140;28;20299;-57
2023/09/26 02:30:30;;;;;;;11.45;5.28;;;;;;;18.10;100.00;64878.31;5053197;28;20229;-58
2023/09/26 02:32:56;;;;;;;11.55;4.72;;;;;;;18.05;100.00;64870.25;5053355;28;20212;-55
2023/09/26 02:35:22;;;;;;;12.68;5.55;;;;;;;18.09;100.00;64874.69;5053041;28;20220;-55
2023/09/26 02:37:48;;;;;;;10.73;6.05;;;;;;;18.11;100.00;64874.31;5052732;28;20224;-55
2023/09/26 02:40:14;;;;;;;9.00;5.10;;;;;;;18.22;100.00;64889.00;5052828;28;20189;-57
2023/09/26 02:42:41;;;;;;;10.20;5.32;;;;;;;18.13;100.00;64878.53;5052757;28;20228;-56
2023/09/26 02:45:07;;;;;;;8.43;4.95;;;;;;;18.33;100.00;64901.13;5034834;28;20663;-55
2023/09/26 02:47:33;;;;;;;7.10;4.70;;;;;;;18.20;100.00;64889.34;5052930;28;20244;-55
2023/09/26 02:49:59;;;;;;;15.38;5.03;;;;;;;18.28;100.00;64895.09;5052528;28;20224;-54
2023/09/26 02:52:25;;;;;;;10.38;5.07;;;;;;;18.11;100.00;64874.31;5052810;28;20210;-56
2023/09/26 02:54:51;;;;;;;8.85;5.00;;;;;;;17.97;100.00;64861.44;5052984;28;20205;-56
2023/09/26 02:57:18;;;;;;;9.35;4.65;;;;;;;17.97;100.00;64858.34;5052695;28;20248;-59
2023/09/26 02:59:44;;;;;;;10.25;4.70;;;;;;;17.92;100.00;64855.91;5052750;28;20220;-55
2023/09/26 03:02:09;;;;;;;9.10;4.78;;;;;;;18.04;100.00;64868.63;5052474;28;20699;-55
2023/09/26 03:04:35;;;;;;;12.82;4.70;;;;;;;17.95;100.00;64861.78;5052981;28;20691;-55
2023/09/26 03:07:00;;;;;;;8.48;4.50;;;;;;;17.94;100.00;64857.56;5052451;28;20634;-55
2023/09/26 03:09:26;;;;;;;8.55;4.43;;;;;;;17.96;100.00;64862.31;5051747;28;20228;-58
2023/09/26 03:11:54;;;;;;;11.27;4.47;;;;;;;17.94;97.57;64855.56;5052375;28;20253;-57
2023/09/26 03:14:20;;;;;;;10.50;4.95;;;;;;;18.01;98.94;64863.31;5034955;28;20204;-54
2023/09/26 03:16:46;;;;;;;14.52;4.93;;;;;;;18.06;94.09;64871.34;5052413;28;20214;-61
2023/09/26 03:19:12;;;;;;;8.45;3.60;;;;;;;18.08;89.23;64873.03;5052569;28;20198;-56
2023/09/26 03:21:38;;;;;;;12.45;4.25;;;;;;;17.98;91.51;64865.09;5052316;28;20209;-54
2023/09/26 03:24:04;;;;;;;9.43;4.15;;;;;;;18.07;91.75;64871.91;5052331;28;20295;-55
2023/09/26 03:26:29;;;;;;;11.25;4.40;;;;;;;18.14;86.74;64882.19;5052323;28;20621;-59
2023/09/26 03:28:54;;;;;;;12.38;4.15;;;;;;;18.05;86.73;64872.81;5052534;28;20212;-56
2023/09/26 03:31:20;;;;;;;12.02;3.70;;;;;;;18.07;84.87;64874.47;5052098;28;20232;-61
2023/09/26 03:33:46;;;;;;;9.10;3.80;;;;;;;18.00;88.93;64862.19;5052461;28;20220;-54
2023/09/26 03:36:11;;;;;;;17.80;4.15;;;;;;;18.10;81.06;64875.75;5052139;28;20566;-57
2023/09/26 03:38:37;;;;;;;9.02;3.50;;;;;;;18.18;80.27;64884.59;5052203;28;20203;-54
2023/09/26 03:41:05;;;;;;;5.47;3.25;;;;;;;18.10;83.07;64873.22;5052000;28;20562;-57
2023/09/26 03:43:31;;;;;;;8.73;3.53;;;;;;;18.11;80.46;64876.88;5052287;28;20210;-56
2023/09/26 03:46:06;;;;;;;10.43;3.92;;;;;;;18.12;84.37;64877.97;5052339;28;20259;-58
2023/09/26 03:48:33;;;;;;;13.80;3.95;;;;;;;18.22;80.26;64888.47;5068671;22;20652;-54
2023/09/26 03:51:12;;;;;;;13.07;3.53;;;;;;;18.12;82.75;64877.97;5071494;28;20213;-53
2023/09/26 03:53:52;;;;;;;11.65;4.03;;;;;;;18.19;78.41;64887.69;5043384;22;20292;-55
2023/09/26 03:56:18;;;;;;;11.35;4.30;;;;;;;18.09;79.95;64874.69;5049915;28;20749;-57
2023/09/26 03:58:53;;;;;;;10.95;3.88;;;;;;;18.17;78.41;64880.38;5064216;22;20280;-57
2023/09/26 04:01:20;;;;;;;12.85;3.42;;;;;;;18.21;77.92;64887.34;5066907;28;20241;-60
2023/09/26 04:03:48;;;;;;;13.65;4.22;;;;;;;18.16;82.60;64879.84;5050183;28;20201;-52
2023/09/26 04:06:14;;;;;;;10.88;3.85;;;;;;;18.18;78.80;64886.59;5051781;28;20197;-53
2023/09/26 04:08:40;;;;;;;7.85;3.17;;;;;;;18.16;79.77;64882.38;5051737;28;20647;-53
2023/09/26 04:11:11;;;;;;;11.50;3.65;;;;;;;18.08;78.44;64870.47;5051485;28;20225;-53
2023/09/26 04:13:37;;;;;;;17.40;3.88;;;;;;;18.06;81.32;64873.91;5051507;28;20228;-53
2023/09/26 04:16:06;;;;;;;17.40;4.10;;;;;;;18.11;78.19;64879.44;5051486;28;20204;-51
2023/09/26 04:18:32;;;;;;;10.43;3.53;;;;;;;18.11;78.46;64873.78;5077026;22;20224;-52
2023/09/26 04:21:02;;;;;;;15.70;3.88;;;;;;;18.17;77.33;64883.50;5070145;28;20200;-52
2023/09/26 04:23:27;;;;;;;13.25;4.60;;;;;;;18.08;82.54;64873.56;5051191;28;20189;-53
2023/09/26 04:25:53;;;;;;;14.20;4.70;;;;;;;18.06;80.79;64873.91;5033398;28;20192;-52
2023/09/26 04:28:20;;;;;;;12.73;3.80;;;;;;;18.02;79.27;64866.94;5051013;28;20588;-52
2023/09/26 04:30:45;;;;;;;14.93;3.80;;;;;;;18.14;78.41;64882.72;5051172;28;20221;-53
2023/09/26 04:33:11;;;;;;;15.55;4.22;;;;;;;18.09;77.35;64872.13;5033226;28;20214;-53
2023/09/26 04:35:37;;;;;;;12.15;4.20;;;;;;;18.15;77.38;64878.75;5051238;28;20193;-52
2023/09/26 04:38:03;;;;;;;10.98;4.13;;;;;;;18.00;77.74;64862.19;5051081;28;20220;-52
2023/09/26 04:40:29;;;;;;;10.95;4.90;;;;;;;18.04;77.75;64868.63;5033222;28;20198;-53
2023/09/26 04:43:00;;;;;;;13.60;4.30;;;;;;;18.00;78.85;64864.75;5051094;28;20762;-53
2023/09/26 04:45:29;;;;;;;21.65;4.07;;;;;;;18.15;78.71;64883.84;5051117;28;20197;-52
2023/09/26 04:47:57;;;;;;;18.25;3.85;;;;;;;18.05;78.23;64869.72;5032921;28;20220;-53
2023/09/26 04:50:23;;;;;;;10.05;4.30;;;;;;;18.12;80.38;64880.00;5050699;28;20360;-53
2023/09/26 04:52:48;;;;;;;9.93;4.45;;;;;;;18.15;78.10;64880.72;5051285;28;20640;-53
2023/09/26 04:55:14;;;;;;;12.02;4.22;;;;;;;18.16;77.31;64881.84;5050906;28;20197;-52
2023/09/26 04:57:42;;;;;;;9.07;4.05;;;;;;;18.07;77.99;64872.47;5051099;28;20609;-53
2023/09/26 05:00:09;;;;;;;18.30;4.43;;;;;;;18.07;78.86;64872.47;5050677;28;20209;-53
2023/09/26 05:02:35;;;;;;;10.68;3.97;;;;;;;18.08;78.36;64868.47;5050685;28;20220;-52
2023/09/26 05:05:02;;;;;;;17.85;4.90;;;;;;;18.24;78.12;64891.19;5050651;28;20276;-52
2023/09/26 05:07:29;;;;;;;15.27;4.28;;;;;;;18.13;78.42;64878.53;5050022;28;20217;-53
2023/09/26 05:09:56;;;;;;;11.70;3.85;;;;;;;18.20;79.12;64886.25;5048385;28;20707;-53
2023/09/26 05:12:22;;;;;;;11.15;3.90;;;;;;;18.28;78.81;64895.63;5049065;28;20212;-53
2023/09/26 05:14:47;;;;;;;20.00;4.45;;;;;;;18.26;79.04;64890.84;5049612;28;20204;-53
2023/09/26 05:17:24;;;;;;;20.17;4.47;;;;;;;18.27;77.60;64896.53;5049983;28;20605;-52
2023/09/26 05:19:50;;;;;;;21.88;4.63;;;;;;;18.23;77.54;64887.56;5050593;28;20177;-52
2023/09/26 05:22:17;;;;;;;9.77;4.25;;;;;;;18.27;79.98;64891.97;5032535;28;20213;-52
2023/09/26 05:24:43;;;;;;;16.30;4.70;;;;;;;18.23;79.60;64892.09;5050352;28;20209;-52
2023/09/26 05:27:08;;;;;;;14.65;4.45;;;;;;;18.20;78.55;64886.25;5050484;28;20206;-53
2023/09/26 05:29:35;;;;;;;17.73;4.22;;;;;;;18.21;78.09;64887.91;5050479;28;20701;-53
2023/09/26 05:32:01;;;;;;;14.00;4.40;;;;;;;18.21;78.48;64885.34;5050167;28;20706;-57
2023/09/26 05:34:28;;;;;;;22.75;4.63;;;;;;;18.25;80.26;64889.75;5050369;28;20193;-53
2023/09/26 05:37:12;;;;;;;12.93;4.28;;;;;;;18.27;79.03;64893.97;5050255;28;20259;-58
2023/09/26 05:39:37;;;;;;;18.73;4.30;;;;;;;18.33;78.50;64901.13;5048911;28;20670;-55
2023/09/26 05:42:03;;;;;;;12.30;4.75;;;;;;;18.41;78.26;64909.97;5050532;28;20232;-56
2023/09/26 05:44:28;;;;;;;14.07;4.82;;;;;;;18.39;79.30;64910.31;5050036;28;20205;-56
2023/09/26 05:46:54;;;;;;;8.93;4.15;;;;;;;18.48;79.08;64917.16;5050489;28;20212;-56
2023/09/26 05:49:19;;;;;;;14.82;5.03;;;;;;;18.44;82.12;64912.75;5032596;28;20292;-56
2023/09/26 05:51:45;;;;;;;14.68;4.45;;;;;;;18.55;78.53;64922.31;5050062;28;20612;-56
2023/09/26 05:54:10;;;;;;;18.98;5.22;;;;;;;18.60;80.32;64932.38;5050316;28;20205;-56
2023/09/26 05:56:35;;;;;;;15.70;4.45;;;;;;;18.65;80.92;64935.91;5050065;28;20713;-55
2023/09/26 05:59:01;;;;;;;8.27;4.18;;;;;;;18.66;80.84;64936.47;5050142;28;20682;-56
2023/09/26 06:01:26;;;;;;;14.00;4.72;;;;;;;18.77;79.42;64949.13;5050106;28;20653;-57
2023/09/26 06:03:52;;;;;;;16.65;4.90;;;;;;;18.79;78.51;64948.78;5049979;28;20208;-55
2023/09/26 06:06:17;;;;;;;12.75;4.32;;;;;;;18.66;78.23;64937.00;5050164;28;20284;-55
2023/09/26 06:08:43;;;;;;;12.82;4.80;;;;;;;18.69;79.47;64937.75;5032170;28;20209;-57
2023/09/26 06:11:10;;;;;;;18.65;5.03;;;;;;;18.69;80.16;64937.75;5049918;28;20304;-57
2023/09/26 06:13:36;;;;;;;14.32;4.47;;;;;;;18.82;79.63;64954.13;5049788;28;20281;-55
2023/09/26 06:16:05;;;;;;;9.63;3.97;;;;;;;18.77;80.15;64948.59;5048275;28;20731;-54
2023/09/26 06:18:31;;;;;;;10.10;4.20;;;;;;;18.76;79.29;64944.94;5049668;28;20676;-56
2023/09/26 06:20:57;;;;;;;21.58;4.05;;;;;;;18.85;80.90;64954.84;5049708;28;20208;-56
2023/09/26 06:23:23;;;;;;;16.83;4.13;;;;;;;18.88;78.97;64963.28;5049663;28;20229;-56
2023/09/26 06:25:57;;;;;;;12.30;4.00;;;;;;;18.87;80.89;64960.16;5031914;28;20203;-57
2023/09/26 06:28:23;;;;;;;16.38;4.28;;;;;;;18.88;80.65;64960.72;5031916;28;20217;-56
2023/09/26 06:30:49;;;;;;;21.55;4.85;;;;;;;19.02;80.74;64976.75;5031754;28;20213;-56
2023/09/26 06:33:14;;;;;;;16.25;4.40;;;;;;;18.93;82.41;64964.25;5049648;28;20707;-56
2023/09/26 06:35:40;;;;;;;12.60;4.50;;;;;;;19.07;81.02;64979.69;5049628;28;20684;-55
2023/09/26 06:38:05;;;;;;;19.17;5.18;;;;;;;19.19;78.87;64994.94;5015397;28;20213;-56
2023/09/26 06:40:31;;;;;;;14.23;4.43;;;;;;;19.18;80.62;64996.41;5049620;28;20216;-56
2023/09/26 06:43:00;;;;;;;17.40;6.38;;;;;;;19.21;79.03;64997.13;5049907;28;20297;-56
2023/09/26 06:45:28;;;;;;;25.17;11.90;;;;;;;19.15;81.58;64990.50;5053130;28;20202;-56
2023/09/26 06:47:53;;;;;;;17.25;6.82;;;;;;;19.43;80.02;65020.91;5034987;28;20271;-56
2023/09/26 06:50:19;;;;;;;23.27;6.18;;;;;;;19.48;77.68;65026.97;5053266;28;20213;-57
2023/09/26 06:52:45;;;;;;;18.02;5.00;;;;;;;19.36;80.23;65013.16;5052926;28;20238;-56
2023/09/26 06:55:10;;;;;;;16.25;4.20;;;;;;;19.48;78.13;65024.41;5035068;28;20216;-55
2023/09/26 06:57:37;;;;;;;13.07;4.00;;;;;;;19.58;80.29;65035.47;5035150;28;20218;-57
2023/09/26 07:00:13;;;;;;;13.95;4.47;;;;;;;19.69;79.52;65052.19;5052819;28;20213;-56
2023/09/26 07:02:43;;;;;;;16.23;4.55;;;;;;;19.68;79.43;65049.06;5052761;28;20217;-56
2023/09/26 07:05:10;;;;;;;19.45;4.70;;;;;;;19.67;80.28;65047.97;5052887;28;20256;-54
2023/09/26 07:07:35;;;;;;;9.63;4.13;;;;;;;19.73;80.20;65052.03;5053120;28;20221;-53
2023/09/26 07:10:02;;;;;;;15.15;5.13;;;;;;;19.90;81.13;65070.78;5052430;28;20198;-52
2023/09/26 07:12:27;;;;;;;14.75;4.78;;;;;;;20.08;79.40;65090.69;5052870;28;20209;-53
2023/09/26 07:14:55;;;;;;;11.77;3.58;;;;;;;20.02;81.47;65086.06;5052936;28;20563;-53
2023/09/26 07:17:21;;;;;;;15.50;5.38;;;;;;;20.13;81.10;65098.22;5052915;28;20576;-52
2023/09/26 07:19:48;;;;;;;12.00;4.22;;;;;;;20.19;80.13;65106.84;5053088;28;20204;-53
2023/09/26 07:22:14;;;;;;;11.95;4.55;;;;;;;20.22;79.27;65105.06;5052490;28;20220;-53
2023/09/26 07:24:40;;;;;;;20.10;4.78;;;;;;;20.33;80.18;65120.34;5052457;28;20205;-53
2023/09/26 07:27:07;;;;;;;11.85;4.93;;;;;;;20.49;78.03;65132.34;5052351;28;20210;-53
2023/09/26 07:29:33;;;;;;;11.93;4.45;;;;;;;20.68;75.75;65155.91;5034544;28;20213;-55
2023/09/26 07:31:58;;;;;;;13.95;4.75;;;;;;;20.82;75.48;65171.38;5034515;28;20261;-56
2023/09/26 07:34:24;;;;;;;15.90;4.35;;;;;;;20.85;74.91;65177.81;5052375;28;20189;-55
2023/09/26 07:36:49;;;;;;;15.48;5.38;;;;;;;20.42;76.15;65127.16;5052619;28;20210;-56
2023/09/26 07:39:17;;;;;;;11.13;4.25;;;;;;;20.57;74.39;65143.72;5052214;28;20217;-55
2023/09/26 07:41:43;;;;;;;13.73;4.22;;;;;;;20.79;74.57;65168.03;5052303;28;20698;-56
2023/09/26 07:44:09;;;;;;;15.00;4.50;;;;;;;20.73;74.62;65161.97;5052190;28;20201;-56
2023/09/26 07:46:35;;;;;;;14.68;5.53;;;;;;;20.95;73.92;65185.72;5052239;28;20213;-56
2023/09/26 07:49:02;;;;;;;13.02;4.45;;;;;;;21.05;72.84;65198.84;5052070;28;20705;-55
2023/09/26 07:51:27;;;;;;;24.75;4.88;;;;;;;20.80;69.88;65171.72;5052212;28;20287;-55
2023/09/26 07:53:53;;;;;;;12.68;3.75;;;;;;;20.81;71.93;65170.25;5051553;28;20736;-56
2023/09/26 07:56:18;;;;;;;15.65;4.68;;;;;;;21.13;72.27;65205.13;5050905;28;20206;-56
2023/09/26 07:58:44;;;;;;;10.10;4.50;;;;;;;21.28;69.60;65219.69;5051922;28;20228;-56
2023/09/26 08:01:10;;;;;;;10.95;4.05;;;;;;;21.30;68.92;65226.47;5051960;28;20209;-57
2023/09/26 08:03:39;;;;;;;9.75;4.60;;;;;;;21.52;67.59;65251.38;5051944;28;20282;-56
2023/09/26 08:06:06;;;;;;;13.18;3.63;;;;;;;21.57;64.57;65254.31;5051684;28;20262;-61
2023/09/26 08:08:33;;;;;;;19.85;3.67;;;;;;;21.61;63.64;65258.75;5051636;28;20235;-57
2023/09/26 08:11:07;;;;;;;13.63;3.72;;;;;;;21.70;68.10;65268.16;5051530;28;20239;-56
2023/09/26 08:13:34;;;;;;;11.00;4.05;;;;;;;21.81;65.80;65279.78;5051709;28;20204;-55
2023/09/26 08:16:00;;;;;;;9.73;4.47;;;;;;;22.04;64.82;65305.25;5051517;28;20205;-56
2023/09/26 08:18:26;;;;;;;13.40;4.30;;;;;;;22.10;64.89;65314.47;5051547;28;20292;-56
2023/09/26 08:20:55;;;;;;;13.95;4.05;;;;;;;22.09;63.89;65308.22;5051414;28;20664;-55
2023/09/26 08:23:28;;;;;;;12.38;4.00;;;;;;;22.28;63.85;65329.78;5051201;28;20205;-55
2023/09/26 08:26:03;;;;;;;11.18;4.15;;;;;;;22.47;61.60;65348.25;5033684;28;20209;-57
2023/09/26 08:28:30;;;;;;;10.18;3.97;;;;;;;22.61;60.89;65370.38;5051374;28;20287;-57
2023/09/26 08:30:56;;;;;;;9.32;3.88;;;;;;;22.73;58.36;65381.63;5050971;28;20380;-55
2023/09/26 08:33:24;;;;;;;11.68;3.95;;;;;;;22.77;59.85;65388.63;5051455;28;20185;-56
2023/09/26 08:35:52;;;;;;;9.48;3.60;;;;;;;22.89;56.14;65399.38;5051232;28;20280;-57
2023/09/26 08:38:18;;;;;;;18.45;3.88;;;;;;;23.05;54.87;65416.53;5033508;28;20714;-53
2023/09/26 08:40:49;;;;;;;12.68;3.90;;;;;;;23.11;53.93;65423.72;5051307;28;20198;-56
2023/09/26 08:43:20;;;;;;;8.77;3.47;;;;;;;23.26;54.56;65442.38;5051309;28;20291;-56
2023/09/26 08:45:46;;;;;;;12.88;3.47;;;;;;;23.29;53.78;65443.66;5051253;28;20279;-56
2023/09/26 08:48:12;;;;;;;7.47;3.45;;;;;;;23.09;56.15;65420.94;5033353;28;20649;-56
2023/09/26 08:50:37;;;;;;;12.13;3.83;;;;;;;22.98;57.77;65409.34;5050945;28;20213;-57
2023/09/26 08:53:04;;;;;;;9.10;3.92;;;;;;;22.94;56.01;65402.34;5051052;28;20308;-55
2023/09/26 08:55:30;;;;;;;11.35;3.53;;;;;;;22.85;57.24;65394.94;5033154;28;20214;-56
2023/09/26 08:57:57;;;;;;;7.35;3.60;;;;;;;23.00;57.13;65411.00;5050962;28;20209;-55
2023/09/26 09:00:24;;;;;;;10.35;3.60;;;;;;;23.45;54.31;65460.31;5050959;28;20209;-57
2023/09/26 09:02:49;;;;;;;15.85;4.97;;;;;;;23.74;56.21;65492.44;5051256;28;20213;-54
2023/09/26 09:05:19;;;;;;;13.05;4.20;;;;;;;24.06;54.03;65528.50;5051221;28;20208;-53
2023/09/26 09:07:46;;;;;;;16.33;4.40;;;;;;;24.48;52.52;65577.09;5050875;28;20217;-53
2023/09/26 09:10:12;;;;;;;12.35;4.07;;;;;;;24.53;51.32;65576.91;5032876;28;20565;-52
2023/09/26 09:12:40;;;;;;;10.02;3.10;;;;;;;24.75;50.84;65604.47;5051078;28;20214;-58
2023/09/26 09:15:15;;;;;;;9.30;3.85;;;;;;;24.58;51.04;65583.03;5050898;28;20205;-57
2023/09/26 09:17:42;;;;;;;12.52;3.85;;;;;;;24.95;51.16;65626.66;5050894;28;20215;-57
2023/09/26 09:20:09;;;;;;;15.32;4.18;;;;;;;25.45;49.13;65681.09;5050579;28;20659;-57
2023/09/26 09:22:35;;;;;;;11.57;3.47;;;;;;;25.97;48.11;65736.22;5050617;28;20216;-57
2023/09/26 09:25:02;;;;;;;9.38;3.55;;;;;;;26.00;50.73;65742.13;5050715;28;20197;-57
2023/09/26 09:27:38;;;;;;;15.20;4.43;;;;;;;26.34;52.52;65774.22;5032822;28;20271;-56
2023/09/26 09:30:11;;;;;;;9.90;4.07;;;;;;;26.75;48.50;65824.94;5050641;28;20212;-58
2023/09/26 09:32:41;;;;;;;12.27;3.38;;;;;;;26.71;46.49;65815.31;5050811;28;20310;-55
2023/09/26 09:35:11;;;;;;;11.00;4.40;;;;;;;26.26;46.79;65771.03;5050415;28;20208;-55
2023/09/26 09:37:37;;;;;;;7.95;4.18;;;;;;;25.88;47.67;65728.81;5050524;28;20709;-54
2023/09/26 09:40:08;;;;;;;9.13;3.88;;;;;;;25.61;50.83;65698.84;5050302;28;20291;-53
2023/09/26 09:42:34;;;;;;;9.73;3.45;;;;;;;25.21;49.77;65651.84;5050267;28;20201;-55
2023/09/26 09:44:59;;;;;;;12.07;4.07;;;;;;;25.22;48.19;65656.09;5050363;28;20585;-55
2023/09/26 09:47:29;;;;;;;9.45;4.00;;;;;;;24.95;48.26;65628.69;5050650;28;20201;-55
2023/09/26 09:50:00;;;;;;;10.18;3.95;;;;;;;25.20;48.90;65653.31;5050138;28;20190;-55
2023/09/26 09:52:31;;;;;;;10.23;3.92;;;;;;;25.79;49.97;65716.25;5050493;28;20217;-56
2023/09/26 09:54:58;;;;;;;10.43;3.65;;;;;;;26.33;48.74;65778.81;5050451;28;20244;-60
2023/09/26 09:57:26;;;;;;;6.30;3.90;;;;;;;26.84;46.93;65831.81;5050811;28;20205;-56
2023/09/26 09:59:52;;;;;;;12.80;3.65;;;;;;;27.07;46.59;65859.97;5032636;28;20209;-55
2023/09/26 10:02:22;;;;;;;11.02;3.67;;;;;;;26.53;47.01;65797.88;5050127;28;20213;-57
2023/09/26 10:04:55;;;;;;;5.93;3.85;;;;;;;26.25;51.01;65767.34;5050059;28;20289;-56
2023/09/26 10:07:25;;;;;;;11.65;3.75;;;;;;;26.11;49.55;65753.81;5068224;22;20225;-55
2023/09/26 10:09:52;;;;;;;7.55;3.88;;;;;;;25.81;48.47;65718.47;5070160;28;20219;-57
2023/09/26 10:12:26;;;;;;;10.68;4.15;;;;;;;26.35;47.37;65777.88;5058484;28;20714;-56
2023/09/26 10:14:56;;;;;;;12.88;3.78;;;;;;;26.81;47.12;65831.59;5050153;28;20197;-57
2023/09/26 10:17:22;;;;;;;10.18;3.97;;;;;;;26.51;47.05;65801.41;5032209;28;20213;-56
2023/09/26 10:19:48;;;;;;;9.75;4.43;;;;;;;26.28;46.83;65770.66;5018725;28;20263;-57
2023/09/26 10:22:19;;;;;;;11.70;3.78;;;;;;;26.31;47.20;65774.00;5034445;28;20695;-57
2023/09/26 10:24:53;;;;;;;7.88;3.35;;;;;;;26.60;46.78;65806.22;5051861;28;20659;-56
2023/09/26 10:27:38;;;;;;;12.13;3.80;;;;;;;26.23;45.45;65767.16;5052750;28;20209;-57
2023/09/26 10:30:06;;;;;;;13.52;4.03;;;;;;;25.41;47.80;65674.59;5052752;28;20224;-55
2023/09/26 10:32:34;;;;;;;14.57;4.25;;;;;;;25.63;47.34;65699.03;5035311;28;20225;-56
2023/09/26 10:35:16;;;;;;;16.67;4.10;;;;;;;26.43;47.21;65787.34;5035394;28;20244;-56
2023/09/26 10:37:45;;;;;;;12.48;3.83;;;;;;;27.05;44.98;65852.56;5053191;28;20256;-56
2023/09/26 10:40:16;;;;;;;13.95;4.20;;;;;;;26.97;45.13;65844.22;5053235;28;20197;-56
2023/09/26 10:42:44;;;;;;;16.35;4.28;;;;;;;26.39;45.32;65784.91;5053504;28;20224;-56
2023/09/26 10:45:10;;;;;;;15.23;4.00;;;;;;;26.55;45.66;65803.25;5053280;28;20204;-56
2023/09/26 10:47:39;;;;;;;9.70;3.85;;;;;;;27.12;46.14;65862.91;5052973;28;20699;-58
2023/09/26 10:50:13;;;;;;;12.80;3.95;;;;;;;27.40;44.05;65894.63;5053077;28;20276;-56
2023/09/26 10:52:48;;;;;;;12.05;4.20;;;;;;;27.20;43.92;65872.38;5052983;28;20210;-56
2023/09/26 10:55:19;;;;;;;12.02;3.55;;;;;;;27.73;44.15;65930.78;5053225;28;20197;-56
2023/09/26 10:57:45;;;;;;;9.80;4.32;;;;;;;27.99;43.70;65959.72;5052906;28;20217;-57
2023/09/26 11:00:13;;;;;;;13.18;3.92;;;;;;;27.44;43.69;65901.09;5052854;28;20586;-56
2023/09/26 11:02:39;;;;;;;7.88;3.70;;;;;;;27.62;44.59;65921.13;5053056;28;20213;-56
2023/09/26 11:05:11;;;;;;;10.18;4.13;;;;;;;27.18;45.67;65872.19;5052681;28;20212;-55
2023/09/26 11:07:38;;;;;;;8.05;3.58;;;;;;;26.30;45.07;65772.88;5052707;28;20213;-55
2023/09/26 11:10:04;;;;;;;16.25;4.63;;;;;;;26.12;47.58;65755.47;5052617;28;20205;-56
2023/09/26 11:12:33;;;;;;;10.95;4.07;;;;;;;26.06;47.27;65743.63;5052495;28;20213;-57
2023/09/26 11:14:59;;;;;;;12.00;4.10;;;;;;;26.11;47.49;65751.78;5052637;28;20199;-56
2023/09/26 11:17:27;;;;;;;13.80;4.28;;;;;;;26.48;45.85;65794.94;5052431;28;20319;-56
2023/09/26 11:19:59;;;;;;;11.55;3.90;;;;;;;27.02;46.41;65851.81;5052447;28;20217;-56
2023/09/26 11:22:26;;;;;;;12.77;4.78;;;;;;;27.37;46.58;65893.34;5052550;28;20225;-56
2023/09/26 11:25:07;;;;;;;12.05;3.92;;;;;;;27.74;44.56;65931.88;5052461;28;20216;-56